sensor_id;sensor_type;location;lat;lon;timestamp;temperature;humidity
4964;DHT22;2497;47.410;9.740;2023-05-16T00:00:48;11.70;99.90
4964;DHT22;2497;47.410;9.740;2023-05-16T00:03:17;11.70;99.90
4964;DHT22;2497;47.410;9.740;2023-05-16T00:05:45;11.70;99.90
4964;DHT22;2497;47.410;9.740;2023-05-16T00:08:12;11.70;99.90
4964;DHT22;2497;47.410;9.740;2023-05-16T00:10:39;11.70;99.90
4964;DHT22;2497;47.410;9.740;2023-05-16T00:13:06;11.60;99.90
4964;DHT22;2497;47.410;9.740;2023-05-16T00:15:35;11.50;99.90
4964;DHT22;2497;47.410;9.740;2023-05-16T00:18:04;11.40;99.90
4964;DHT22;2497;47.410;9.740;2023-05-16T00:20:31;11.40;99.90
4964;DHT22;2497;47.410;9.740;2023-05-16T00:22:59;11.40;99.90
4964;DHT22;2497;47.410;9.740;2023-05-16T00:25:26;11.30;99.90
4964;DHT22;2497;47.410;9.740;2023-05-16T00:27:53;11.30;99.90
4964;DHT22;2497;47.410;9.740;2023-05-16T00:30:20;11.20;99.90
4964;DHT22;2497;47.410;9.740;2023-05-16T00:32:48;11.20;99.90
4964;DHT22;2497;47.410;9.740;2023-05-16T00:35:16;11.20;99.90
4964;DHT22;2497;47.410;9.740;2023-05-16T00:37:43;11.20;99.90
4964;DHT22;2497;47.410;9.740;2023-05-16T00:40:12;11.20;99.90
4964;DHT22;2497;47.410;9.740;2023-05-16T00:42:39;11.20;99.90
4964;DHT22;2497;47.410;9.740;2023-05-16T00:45:07;11.20;99.90
4964;DHT22;2497;47.410;9.740;2023-05-16T00:47:35;11.30;99.90
4964;DHT22;2497;47.410;9.740;2023-05-16T00:50:02;11.30;99.90
4964;DHT22;2497;47.410;9.740;2023-05-16T00:52:31;11.30;99.90
4964;DHT22;2497;47.410;9.740;2023-05-16T00:54:58;11.40;99.90
4964;DHT22;2497;47.410;9.740;2023-05-16T00:57:26;11.40;99.90
4964;DHT22;2497;47.410;9.740;2023-05-16T00:59:53;11.40;99.90
4964;DHT22;2497;47.410;9.740;2023-05-16T01:02:21;11.40;99.90
4964;DHT22;2497;47.410;9.740;2023-05-16T01:04:48;11.50;99.90
4964;DHT22;2497;47.410;9.740;2023-05-16T01:07:16;11.40;99.90
4964;DHT22;2497;47.410;9.740;2023-05-16T01:09:45;11.30;99.90
4964;DHT22;2497;47.410;9.740;2023-05-16T01:12:17;11.40;99.90
4964;DHT22;2497;47.410;9.740;2023-05-16T01:14:54;11.40;99.90
4964;DHT22;2497;47.410;9.740;2023-05-16T01:17:28;11.30;99.90
4964;DHT22;2497;47.410;9.740;2023-05-16T01:20:12;11.30;99.90
4964;DHT22;2497;47.410;9.740;2023-05-16T01:22:52;11.30;99.90
4964;DHT22;2497;47.410;9.740;2023-05-16T01:25:38;11.30;99.90
4964;DHT22;2497;47.410;9.740;2023-05-16T01:28:15;11.30;99.90
4964;DHT22;2497;47.410;9.740;2023-05-16T01:30:43;11.30;99.90
4964;DHT22;2497;47.410;9.740;2023-05-16T01:33:10;11.30;99.90
4964;DHT22;2497;47.410;9.740;2023-05-16T01:35:42;11.40;99.90
4964;DHT22;2497;47.410;9.740;2023-05-16T01:38:15;11.40;99.90
4964;DHT22;2497;47.410;9.740;2023-05-16T01:40:47;11.50;99.90
4964;DHT22;2497;47.410;9.740;2023-05-16T01:43:24;11.50;99.90
4964;DHT22;2497;47.410;9.740;2023-05-16T01:45:56;11.60;99.90
4964;DHT22;2497;47.410;9.740;2023-05-16T01:48:29;11.60;99.90
4964;DHT22;2497;47.410;9.740;2023-05-16T01:50:59;11.60;99.90
4964;DHT22;2497;47.410;9.740;2023-05-16T01:53:28;11.60;99.90
4964;DHT22;2497;47.410;9.740;2023-05-16T01:55:59;11.60;99.90
4964;DHT22;2497;47.410;9.740;2023-05-16T01:58:32;11.60;99.90
4964;DHT22;2497;47.410;9.740;2023-05-16T02:01:00;11.60;99.90
4964;DHT22;2497;47.410;9.740;2023-05-16T02:03:28;11.60;99.90
4964;DHT22;2497;47.410;9.740;2023-05-16T02:05:55;11.60;99.90
4964;DHT22;2497;47.410;9.740;2023-05-16T02:08:22;11.60;99.90
4964;DHT22;2497;47.410;9.740;2023-05-16T02:10:51;11.60;99.90
4964;DHT22;2497;47.410;9.740;2023-05-16T02:13:18;11.60;99.90
4964;DHT22;2497;47.410;9.740;2023-05-16T02:15:46;11.70;99.90
4964;DHT22;2497;47.410;9.740;2023-05-16T02:18:13;11.70;99.90
4964;DHT22;2497;47.410;9.740;2023-05-16T02:20:41;11.70;99.90
4964;DHT22;2497;47.410;9.740;2023-05-16T02:23:08;11.70;99.90
4964;DHT22;2497;47.410;9.740;2023-05-16T02:25:35;11.70;99.90
4964;DHT22;2497;47.410;9.740;2023-05-16T02:28:03;11.70;99.90
4964;DHT22;2497;47.410;9.740;2023-05-16T02:30:30;11.70;99.90
4964;DHT22;2497;47.410;9.740;2023-05-16T02:32:58;11.70;99.90
4964;DHT22;2497;47.410;9.740;2023-05-16T02:35:25;11.70;99.90
4964;DHT22;2497;47.410;9.740;2023-05-16T02:37:52;11.70;99.90
4964;DHT22;2497;47.410;9.740;2023-05-16T02:40:20;11.70;99.90
4964;DHT22;2497;47.410;9.740;2023-05-16T02:42:47;11.70;99.90
4964;DHT22;2497;47.410;9.740;2023-05-16T02:45:14;11.70;99.90
4964;DHT22;2497;47.410;9.740;2023-05-16T02:47:41;11.70;99.90
4964;DHT22;2497;47.410;9.740;2023-05-16T02:50:10;11.70;99.90
4964;DHT22;2497;47.410;9.740;2023-05-16T02:52:37;11.70;99.90
4964;DHT22;2497;47.410;9.740;2023-05-16T02:55:05;11.60;99.90
4964;DHT22;2497;47.410;9.740;2023-05-16T02:57:32;11.60;99.90
4964;DHT22;2497;47.410;9.740;2023-05-16T02:59:59;11.70;99.90
4964;DHT22;2497;47.410;9.740;2023-05-16T03:02:26;11.70;99.90
4964;DHT22;2497;47.410;9.740;2023-05-16T03:04:53;11.70;99.90
4964;DHT22;2497;47.410;9.740;2023-05-16T03:07:21;11.70;99.90
4964;DHT22;2497;47.410;9.740;2023-05-16T03:09:48;11.70;99.90
4964;DHT22;2497;47.410;9.740;2023-05-16T03:12:15;11.70;99.90
4964;DHT22;2497;47.410;9.740;2023-05-16T03:14:42;11.70;99.90
4964;DHT22;2497;47.410;9.740;2023-05-16T03:17:10;11.60;99.90
4964;DHT22;2497;47.410;9.740;2023-05-16T03:19:37;11.50;99.90
4964;DHT22;2497;47.410;9.740;2023-05-16T03:22:04;11.50;99.90
4964;DHT22;2497;47.410;9.740;2023-05-16T03:24:32;11.50;99.90
4964;DHT22;2497;47.410;9.740;2023-05-16T03:26:59;11.50;99.90
4964;DHT22;2497;47.410;9.740;2023-05-16T03:29:28;11.50;99.90
4964;DHT22;2497;47.410;9.740;2023-05-16T03:31:55;11.50;99.90
4964;DHT22;2497;47.410;9.740;2023-05-16T03:34:22;11.60;99.90
4964;DHT22;2497;47.410;9.740;2023-05-16T03:36:49;11.50;99.90
4964;DHT22;2497;47.410;9.740;2023-05-16T03:39:16;11.50;99.90
4964;DHT22;2497;47.410;9.740;2023-05-16T03:41:45;11.40;99.90
4964;DHT22;2497;47.410;9.740;2023-05-16T03:44:12;11.40;99.90
4964;DHT22;2497;47.410;9.740;2023-05-16T03:46:39;11.40;99.90
4964;DHT22;2497;47.410;9.740;2023-05-16T03:49:06;11.50;99.90
4964;DHT22;2497;47.410;9.740;2023-05-16T03:51:33;11.50;99.90
4964;DHT22;2497;47.410;9.740;2023-05-16T03:54:00;11.50;99.90
4964;DHT22;2497;47.410;9.740;2023-05-16T03:56:27;11.40;99.90
4964;DHT22;2497;47.410;9.740;2023-05-16T03:58:55;11.40;99.90
4964;DHT22;2497;47.410;9.740;2023-05-16T04:01:22;11.40;99.90
4964;DHT22;2497;47.410;9.740;2023-05-16T04:03:50;11.40;99.90
4964;DHT22;2497;47.410;9.740;2023-05-16T04:06:17;11.40;99.90
4964;DHT22;2497;47.410;9.740;2023-05-16T04:08:44;11.40;99.90
4964;DHT22;2497;47.410;9.740;2023-05-16T04:11:11;11.30;99.90
4964;DHT22;2497;47.410;9.740;2023-05-16T04:13:38;11.30;99.90
4964;DHT22;2497;47.410;9.740;2023-05-16T04:16:09;11.30;99.90
4964;DHT22;2497;47.410;9.740;2023-05-16T04:18:36;11.30;99.90
4964;DHT22;2497;47.410;9.740;2023-05-16T04:21:03;11.30;99.90
4964;DHT22;2497;47.410;9.740;2023-05-16T04:23:31;11.30;99.90
4964;DHT22;2497;47.410;9.740;2023-05-16T04:25:58;11.30;99.90
4964;DHT22;2497;47.410;9.740;2023-05-16T04:28:26;11.30;99.90
4964;DHT22;2497;47.410;9.740;2023-05-16T04:30:53;11.30;99.90
4964;DHT22;2497;47.410;9.740;2023-05-16T04:33:22;11.30;99.90
4964;DHT22;2497;47.410;9.740;2023-05-16T04:35:49;11.40;99.90
4964;DHT22;2497;47.410;9.740;2023-05-16T04:38:17;11.40;99.90
4964;DHT22;2497;47.410;9.740;2023-05-16T04:40:44;11.30;99.90
4964;DHT22;2497;47.410;9.740;2023-05-16T04:43:11;11.30;99.90
4964;DHT22;2497;47.410;9.740;2023-05-16T04:45:41;11.40;99.90
4964;DHT22;2497;47.410;9.740;2023-05-16T04:48:09;11.40;99.90
4964;DHT22;2497;47.410;9.740;2023-05-16T04:50:37;11.30;99.90
4964;DHT22;2497;47.410;9.740;2023-05-16T04:53:04;11.40;99.90
4964;DHT22;2497;47.410;9.740;2023-05-16T04:55:31;11.40;99.90
4964;DHT22;2497;47.410;9.740;2023-05-16T04:57:58;11.50;99.90
4964;DHT22;2497;47.410;9.740;2023-05-16T05:00:25;11.50;99.90
4964;DHT22;2497;47.410;9.740;2023-05-16T05:02:52;11.60;99.90
4964;DHT22;2497;47.410;9.740;2023-05-16T05:05:20;11.60;99.90
4964;DHT22;2497;47.410;9.740;2023-05-16T05:07:57;11.60;99.90
4964;DHT22;2497;47.410;9.740;2023-05-16T05:10:25;11.70;99.90
4964;DHT22;2497;47.410;9.740;2023-05-16T05:12:53;11.70;99.90
4964;DHT22;2497;47.410;9.740;2023-05-16T05:15:22;11.70;99.90
4964;DHT22;2497;47.410;9.740;2023-05-16T05:17:49;11.70;99.90
4964;DHT22;2497;47.410;9.740;2023-05-16T05:20:17;11.70;99.90
4964;DHT22;2497;47.410;9.740;2023-05-16T05:22:47;11.80;99.90
4964;DHT22;2497;47.410;9.740;2023-05-16T05:25:14;11.70;99.90
4964;DHT22;2497;47.410;9.740;2023-05-16T05:27:41;11.70;99.90
4964;DHT22;2497;47.410;9.740;2023-05-16T05:30:09;11.80;99.90
4964;DHT22;2497;47.410;9.740;2023-05-16T05:32:36;11.80;99.90
4964;DHT22;2497;47.410;9.740;2023-05-16T05:35:06;11.90;99.90
4964;DHT22;2497;47.410;9.740;2023-05-16T05:37:33;11.90;99.90
4964;DHT22;2497;47.410;9.740;2023-05-16T05:40:02;12.00;99.90
4964;DHT22;2497;47.410;9.740;2023-05-16T05:42:29;11.90;99.90
4964;DHT22;2497;47.410;9.740;2023-05-16T05:44:56;11.90;99.90
4964;DHT22;2497;47.410;9.740;2023-05-16T05:47:25;11.90;99.90
4964;DHT22;2497;47.410;9.740;2023-05-16T05:49:56;11.90;99.90
4964;DHT22;2497;47.410;9.740;2023-05-16T05:52:23;12.00;99.90
4964;DHT22;2497;47.410;9.740;2023-05-16T05:54:52;12.10;99.90
4964;DHT22;2497;47.410;9.740;2023-05-16T05:57:22;12.10;99.90
4964;DHT22;2497;47.410;9.740;2023-05-16T05:59:49;12.20;99.90
4964;DHT22;2497;47.410;9.740;2023-05-16T06:02:16;12.20;99.90
4964;DHT22;2497;47.410;9.740;2023-05-16T06:04:43;12.20;99.90
4964;DHT22;2497;47.410;9.740;2023-05-16T06:07:13;12.20;99.90
4964;DHT22;2497;47.410;9.740;2023-05-16T06:09:41;12.40;99.90
4964;DHT22;2497;47.410;9.740;2023-05-16T06:12:08;12.40;99.90
4964;DHT22;2497;47.410;9.740;2023-05-16T06:14:39;12.40;99.90
4964;DHT22;2497;47.410;9.740;2023-05-16T06:17:08;12.40;99.90
4964;DHT22;2497;47.410;9.740;2023-05-16T06:19:35;12.30;99.90
4964;DHT22;2497;47.410;9.740;2023-05-16T06:22:04;12.30;99.90
4964;DHT22;2497;47.410;9.740;2023-05-16T06:24:31;12.30;99.90
4964;DHT22;2497;47.410;9.740;2023-05-16T06:26:58;12.40;99.90
4964;DHT22;2497;47.410;9.740;2023-05-16T06:29:27;12.50;99.90
4964;DHT22;2497;47.410;9.740;2023-05-16T06:31:57;12.60;99.90
4964;DHT22;2497;47.410;9.740;2023-05-16T06:34:35;12.90;99.90
4964;DHT22;2497;47.410;9.740;2023-05-16T06:37:07;13.20;99.90
4964;DHT22;2497;47.410;9.740;2023-05-16T06:39:34;13.40;99.90
4964;DHT22;2497;47.410;9.740;2023-05-16T06:42:03;13.70;99.90
4964;DHT22;2497;47.410;9.740;2023-05-16T06:44:33;13.80;99.90
4964;DHT22;2497;47.410;9.740;2023-05-16T06:47:02;13.70;99.90
4964;DHT22;2497;47.410;9.740;2023-05-16T06:49:29;13.80;99.90
4964;DHT22;2497;47.410;9.740;2023-05-16T06:51:56;13.90;99.90
4964;DHT22;2497;47.410;9.740;2023-05-16T06:54:23;13.80;99.90
4964;DHT22;2497;47.410;9.740;2023-05-16T06:56:52;13.80;99.90
4964;DHT22;2497;47.410;9.740;2023-05-16T06:59:19;13.90;99.90
4964;DHT22;2497;47.410;9.740;2023-05-16T07:01:46;13.90;99.90
4964;DHT22;2497;47.410;9.740;2023-05-16T07:04:14;13.80;99.90
4964;DHT22;2497;47.410;9.740;2023-05-16T07:06:43;13.80;99.90
4964;DHT22;2497;47.410;9.740;2023-05-16T07:09:10;13.80;99.90
4964;DHT22;2497;47.410;9.740;2023-05-16T07:11:37;13.90;99.90
4964;DHT22;2497;47.410;9.740;2023-05-16T07:14:04;14.00;99.90
4964;DHT22;2497;47.410;9.740;2023-05-16T07:16:31;14.10;99.90
4964;DHT22;2497;47.410;9.740;2023-05-16T07:18:58;14.20;99.90
4964;DHT22;2497;47.410;9.740;2023-05-16T07:21:27;14.00;99.90
4964;DHT22;2497;47.410;9.740;2023-05-16T07:23:54;14.00;99.90
4964;DHT22;2497;47.410;9.740;2023-05-16T07:26:22;14.00;99.90
4964;DHT22;2497;47.410;9.740;2023-05-16T07:28:49;13.90;99.90
4964;DHT22;2497;47.410;9.740;2023-05-16T07:31:16;13.90;99.90
4964;DHT22;2497;47.410;9.740;2023-05-16T07:33:45;13.80;99.90
4964;DHT22;2497;47.410;9.740;2023-05-16T07:36:13;13.70;99.90
4964;DHT22;2497;47.410;9.740;2023-05-16T07:38:42;13.60;99.90
4964;DHT22;2497;47.410;9.740;2023-05-16T07:41:09;13.40;99.90
4964;DHT22;2497;47.410;9.740;2023-05-16T07:43:38;13.20;99.90
4964;DHT22;2497;47.410;9.740;2023-05-16T07:46:05;13.20;99.90
4964;DHT22;2497;47.410;9.740;2023-05-16T07:48:32;13.40;99.90
4964;DHT22;2497;47.410;9.740;2023-05-16T07:50:59;13.50;99.90
4964;DHT22;2497;47.410;9.740;2023-05-16T07:53:26;13.50;99.90
4964;DHT22;2497;47.410;9.740;2023-05-16T07:55:54;13.60;99.90
4964;DHT22;2497;47.410;9.740;2023-05-16T07:58:24;13.70;99.90
4964;DHT22;2497;47.410;9.740;2023-05-16T08:00:51;13.40;99.90
4964;DHT22;2497;47.410;9.740;2023-05-16T08:03:18;13.30;99.90
4964;DHT22;2497;47.410;9.740;2023-05-16T08:05:45;13.40;99.90
4964;DHT22;2497;47.410;9.740;2023-05-16T08:08:13;13.50;99.90
4964;DHT22;2497;47.410;9.740;2023-05-16T08:10:40;13.40;99.90
4964;DHT22;2497;47.410;9.740;2023-05-16T08:13:08;13.50;99.90
4964;DHT22;2497;47.410;9.740;2023-05-16T08:15:35;13.70;99.90
4964;DHT22;2497;47.410;9.740;2023-05-16T08:18:12;13.90;99.90
4964;DHT22;2497;47.410;9.740;2023-05-16T08:20:40;14.20;99.90
4964;DHT22;2497;47.410;9.740;2023-05-16T08:23:07;14.30;99.90
4964;DHT22;2497;47.410;9.740;2023-05-16T08:25:35;14.30;99.90
4964;DHT22;2497;47.410;9.740;2023-05-16T08:28:03;14.20;99.90
4964;DHT22;2497;47.410;9.740;2023-05-16T08:30:34;14.10;99.90
4964;DHT22;2497;47.410;9.740;2023-05-16T08:33:01;14.10;99.90
4964;DHT22;2497;47.410;9.740;2023-05-16T08:35:29;14.00;99.90
4964;DHT22;2497;47.410;9.740;2023-05-16T08:37:56;14.10;99.90
4964;DHT22;2497;47.410;9.740;2023-05-16T08:40:25;14.10;99.90
4964;DHT22;2497;47.410;9.740;2023-05-16T08:42:52;14.10;99.90
4964;DHT22;2497;47.410;9.740;2023-05-16T08:45:20;14.10;99.90
4964;DHT22;2497;47.410;9.740;2023-05-16T08:47:49;13.90;99.90
4964;DHT22;2497;47.410;9.740;2023-05-16T08:50:23;13.80;99.90
4964;DHT22;2497;47.410;9.740;2023-05-16T08:52:53;13.70;99.90
4964;DHT22;2497;47.410;9.740;2023-05-16T08:55:21;13.60;99.90
4964;DHT22;2497;47.410;9.740;2023-05-16T08:57:49;13.60;99.90
4964;DHT22;2497;47.410;9.740;2023-05-16T09:00:17;13.70;99.90
4964;DHT22;2497;47.410;9.740;2023-05-16T09:02:50;13.80;99.90
4964;DHT22;2497;47.410;9.740;2023-05-16T09:05:18;13.70;99.90
4964;DHT22;2497;47.410;9.740;2023-05-16T09:07:46;13.60;99.90
4964;DHT22;2497;47.410;9.740;2023-05-16T09:10:15;13.50;99.90
4964;DHT22;2497;47.410;9.740;2023-05-16T09:12:47;13.50;99.90
4964;DHT22;2497;47.410;9.740;2023-05-16T09:15:18;13.30;99.90
4964;DHT22;2497;47.410;9.740;2023-05-16T09:17:46;13.20;99.90
4964;DHT22;2497;47.410;9.740;2023-05-16T09:20:16;13.20;99.90
4964;DHT22;2497;47.410;9.740;2023-05-16T09:22:50;13.10;99.90
4964;DHT22;2497;47.410;9.740;2023-05-16T09:25:20;13.20;99.90
4964;DHT22;2497;47.410;9.740;2023-05-16T09:27:51;13.20;99.90
4964;DHT22;2497;47.410;9.740;2023-05-16T09:30:26;13.10;99.90
4964;DHT22;2497;47.410;9.740;2023-05-16T09:32:55;13.10;99.90
4964;DHT22;2497;47.410;9.740;2023-05-16T09:35:25;13.20;99.90
4964;DHT22;2497;47.410;9.740;2023-05-16T09:37:52;13.20;99.90
4964;DHT22;2497;47.410;9.740;2023-05-16T09:40:21;13.30;99.90
4964;DHT22;2497;47.410;9.740;2023-05-16T09:43:00;13.30;99.90
4964;DHT22;2497;47.410;9.740;2023-05-16T09:45:28;13.30;99.90
4964;DHT22;2497;47.410;9.740;2023-05-16T09:48:04;13.20;99.90
4964;DHT22;2497;47.410;9.740;2023-05-16T09:50:33;13.20;99.90
4964;DHT22;2497;47.410;9.740;2023-05-16T09:53:01;13.20;99.90
4964;DHT22;2497;47.410;9.740;2023-05-16T09:55:29;13.20;99.90
4964;DHT22;2497;47.410;9.740;2023-05-16T09:57:56;13.10;99.90
4964;DHT22;2497;47.410;9.740;2023-05-16T10:00:28;13.10;99.90
4964;DHT22;2497;47.410;9.740;2023-05-16T10:02:56;13.00;99.90
4964;DHT22;2497;47.410;9.740;2023-05-16T10:05:26;13.00;99.90
4964;DHT22;2497;47.410;9.740;2023-05-16T10:07:55;13.10;99.90
4964;DHT22;2497;47.410;9.740;2023-05-16T10:10:23;13.20;99.90
4964;DHT22;2497;47.410;9.740;2023-05-16T10:12:51;13.20;99.90
4964;DHT22;2497;47.410;9.740;2023-05-16T10:15:22;13.20;99.90
4964;DHT22;2497;47.410;9.740;2023-05-16T10:17:50;13.20;99.90
4964;DHT22;2497;47.410;9.740;2023-05-16T10:20:19;13.30;99.90
4964;DHT22;2497;47.410;9.740;2023-05-16T10:22:48;13.20;99.90
4964;DHT22;2497;47.410;9.740;2023-05-16T10:25:24;13.10;99.90
4964;DHT22;2497;47.410;9.740;2023-05-16T10:27:51;13.10;99.90
4964;DHT22;2497;47.410;9.740;2023-05-16T10:30:19;13.10;99.90
4964;DHT22;2497;47.410;9.740;2023-05-16T10:32:46;13.20;99.90
4964;DHT22;2497;47.410;9.740;2023-05-16T10:35:16;13.20;99.90
4964;DHT22;2497;47.410;9.740;2023-05-16T10:37:43;13.20;99.90
4964;DHT22;2497;47.410;9.740;2023-05-16T10:40:11;13.10;99.90
4964;DHT22;2497;47.410;9.740;2023-05-16T10:42:43;13.10;99.90
4964;DHT22;2497;47.410;9.740;2023-05-16T10:45:20;12.80;99.90
4964;DHT22;2497;47.410;9.740;2023-05-16T10:47:55;12.60;99.90
4964;DHT22;2497;47.410;9.740;2023-05-16T10:50:36;12.30;99.90
4964;DHT22;2497;47.410;9.740;2023-05-16T10:53:13;12.00;99.90
4964;DHT22;2497;47.410;9.740;2023-05-16T10:55:44;11.80;99.90
4964;DHT22;2497;47.410;9.740;2023-05-16T10:58:22;11.80;99.90
4964;DHT22;2497;47.410;9.740;2023-05-16T11:01:20;11.80;99.90
4964;DHT22;2497;47.410;9.740;2023-05-16T11:04:08;11.90;99.90
4964;DHT22;2497;47.410;9.740;2023-05-16T11:06:50;11.90;99.90
4964;DHT22;2497;47.410;9.740;2023-05-16T11:09:27;12.10;99.90
4964;DHT22;2497;47.410;9.740;2023-05-16T11:11:59;12.10;99.90
4964;DHT22;2497;47.410;9.740;2023-05-16T11:14:35;12.20;99.90
4964;DHT22;2497;47.410;9.740;2023-05-16T11:17:06;12.30;99.90
4964;DHT22;2497;47.410;9.740;2023-05-16T11:19:38;12.30;99.90
4964;DHT22;2497;47.410;9.740;2023-05-16T11:22:07;12.40;99.90
4964;DHT22;2497;47.410;9.740;2023-05-16T11:24:34;12.50;99.90
4964;DHT22;2497;47.410;9.740;2023-05-16T11:27:03;12.70;99.90
4964;DHT22;2497;47.410;9.740;2023-05-16T11:29:32;12.90;99.90
4964;DHT22;2497;47.410;9.740;2023-05-16T11:32:01;12.80;99.90
4964;DHT22;2497;47.410;9.740;2023-05-16T11:34:29;12.90;99.90
4964;DHT22;2497;47.410;9.740;2023-05-16T11:36:57;13.00;99.90
4964;DHT22;2497;47.410;9.740;2023-05-16T11:39:28;12.90;99.90
4964;DHT22;2497;47.410;9.740;2023-05-16T11:41:58;12.90;99.90
4964;DHT22;2497;47.410;9.740;2023-05-16T11:44:25;12.90;99.90
4964;DHT22;2497;47.410;9.740;2023-05-16T11:46:54;12.80;99.90
4964;DHT22;2497;47.410;9.740;2023-05-16T11:49:21;12.70;99.90
4964;DHT22;2497;47.410;9.740;2023-05-16T11:51:48;12.60;99.90
4964;DHT22;2497;47.410;9.740;2023-05-16T11:54:17;12.70;99.90
4964;DHT22;2497;47.410;9.740;2023-05-16T11:56:45;12.70;99.90
4964;DHT22;2497;47.410;9.740;2023-05-16T11:59:14;12.80;99.90
4964;DHT22;2497;47.410;9.740;2023-05-16T12:01:42;13.00;99.90
4964;DHT22;2497;47.410;9.740;2023-05-16T12:04:15;13.10;99.90
4964;DHT22;2497;47.410;9.740;2023-05-16T12:06:43;13.10;99.90
4964;DHT22;2497;47.410;9.740;2023-05-16T12:09:14;13.00;99.90
4964;DHT22;2497;47.410;9.740;2023-05-16T12:11:42;13.00;99.90
4964;DHT22;2497;47.410;9.740;2023-05-16T12:14:11;13.10;99.90
4964;DHT22;2497;47.410;9.740;2023-05-16T12:16:39;13.10;99.90
4964;DHT22;2497;47.410;9.740;2023-05-16T12:19:08;13.10;99.90
4964;DHT22;2497;47.410;9.740;2023-05-16T12:21:40;13.10;99.90
4964;DHT22;2497;47.410;9.740;2023-05-16T12:24:10;13.20;99.90
4964;DHT22;2497;47.410;9.740;2023-05-16T12:26:39;13.10;99.90
4964;DHT22;2497;47.410;9.740;2023-05-16T12:29:09;13.00;99.90
4964;DHT22;2497;47.410;9.740;2023-05-16T12:31:38;12.80;99.90
4964;DHT22;2497;47.410;9.740;2023-05-16T12:34:14;12.70;99.90
4964;DHT22;2497;47.410;9.740;2023-05-16T12:36:43;12.50;99.90
4964;DHT22;2497;47.410;9.740;2023-05-16T12:39:12;12.50;99.90
4964;DHT22;2497;47.410;9.740;2023-05-16T12:41:43;12.50;99.90
4964;DHT22;2497;47.410;9.740;2023-05-16T12:44:12;12.50;99.90
4964;DHT22;2497;47.410;9.740;2023-05-16T12:46:42;12.50;99.90
4964;DHT22;2497;47.410;9.740;2023-05-16T12:49:10;12.60;99.90
4964;DHT22;2497;47.410;9.740;2023-05-16T12:51:40;12.60;99.90
4964;DHT22;2497;47.410;9.740;2023-05-16T12:54:15;12.60;99.90
4964;DHT22;2497;47.410;9.740;2023-05-16T12:56:42;12.60;99.90
4964;DHT22;2497;47.410;9.740;2023-05-16T12:59:10;12.60;99.90
4964;DHT22;2497;47.410;9.740;2023-05-16T13:01:38;12.90;99.90
4964;DHT22;2497;47.410;9.740;2023-05-16T13:04:06;13.30;99.90
4964;DHT22;2497;47.410;9.740;2023-05-16T13:06:34;13.30;99.90
4964;DHT22;2497;47.410;9.740;2023-05-16T13:09:03;13.10;99.90
4964;DHT22;2497;47.410;9.740;2023-05-16T13:11:33;12.90;99.90
4964;DHT22;2497;47.410;9.740;2023-05-16T13:14:00;12.80;99.90
4964;DHT22;2497;47.410;9.740;2023-05-16T13:16:27;12.80;99.90
4964;DHT22;2497;47.410;9.740;2023-05-16T13:18:55;12.60;99.90
4964;DHT22;2497;47.410;9.740;2023-05-16T13:21:23;12.60;99.90
4964;DHT22;2497;47.410;9.740;2023-05-16T13:23:52;12.50;99.90
4964;DHT22;2497;47.410;9.740;2023-05-16T13:26:19;12.40;99.90
4964;DHT22;2497;47.410;9.740;2023-05-16T13:28:48;12.40;99.90
4964;DHT22;2497;47.410;9.740;2023-05-16T13:31:19;12.40;99.90
4964;DHT22;2497;47.410;9.740;2023-05-16T13:33:46;12.40;99.90
4964;DHT22;2497;47.410;9.740;2023-05-16T13:36:13;12.40;99.90
4964;DHT22;2497;47.410;9.740;2023-05-16T13:38:40;12.30;99.90
4964;DHT22;2497;47.410;9.740;2023-05-16T13:41:08;12.30;99.90
4964;DHT22;2497;47.410;9.740;2023-05-16T13:43:35;12.30;99.90
4964;DHT22;2497;47.410;9.740;2023-05-16T13:46:03;12.30;99.90
4964;DHT22;2497;47.410;9.740;2023-05-16T13:48:30;12.20;99.90
4964;DHT22;2497;47.410;9.740;2023-05-16T13:51:00;12.20;99.90
4964;DHT22;2497;47.410;9.740;2023-05-16T13:53:35;12.10;99.90
4964;DHT22;2497;47.410;9.740;2023-05-16T13:56:04;12.10;99.90
4964;DHT22;2497;47.410;9.740;2023-05-16T13:58:31;12.20;99.90
4964;DHT22;2497;47.410;9.740;2023-05-16T14:00:58;12.20;99.90
4964;DHT22;2497;47.410;9.740;2023-05-16T14:03:27;12.20;99.90
4964;DHT22;2497;47.410;9.740;2023-05-16T14:05:54;12.10;99.90
4964;DHT22;2497;47.410;9.740;2023-05-16T14:08:23;12.10;99.90
4964;DHT22;2497;47.410;9.740;2023-05-16T14:10:50;12.00;99.90
4964;DHT22;2497;47.410;9.740;2023-05-16T14:13:19;12.00;99.90
4964;DHT22;2497;47.410;9.740;2023-05-16T14:15:46;12.00;99.90
4964;DHT22;2497;47.410;9.740;2023-05-16T14:18:13;12.00;99.90
4964;DHT22;2497;47.410;9.740;2023-05-16T14:20:44;12.00;99.90
4964;DHT22;2497;47.410;9.740;2023-05-16T14:23:13;12.00;99.90
4964;DHT22;2497;47.410;9.740;2023-05-16T14:25:40;11.90;99.90
4964;DHT22;2497;47.410;9.740;2023-05-16T14:28:14;12.00;99.90
4964;DHT22;2497;47.410;9.740;2023-05-16T14:30:41;11.90;99.90
4964;DHT22;2497;47.410;9.740;2023-05-16T14:33:10;11.90;99.90
4964;DHT22;2497;47.410;9.740;2023-05-16T14:35:38;11.80;99.90
4964;DHT22;2497;47.410;9.740;2023-05-16T14:38:07;11.80;99.90
4964;DHT22;2497;47.410;9.740;2023-05-16T14:40:34;11.90;99.90
4964;DHT22;2497;47.410;9.740;2023-05-16T14:43:03;11.90;99.90
4964;DHT22;2497;47.410;9.740;2023-05-16T14:45:32;11.90;99.90
4964;DHT22;2497;47.410;9.740;2023-05-16T14:48:02;11.90;99.90
4964;DHT22;2497;47.410;9.740;2023-05-16T14:50:29;11.80;99.90
4964;DHT22;2497;47.410;9.740;2023-05-16T14:52:56;11.80;99.90
4964;DHT22;2497;47.410;9.740;2023-05-16T14:55:26;11.90;99.90
4964;DHT22;2497;47.410;9.740;2023-05-16T14:57:53;11.80;99.90
4964;DHT22;2497;47.410;9.740;2023-05-16T15:00:24;11.80;99.90
4964;DHT22;2497;47.410;9.740;2023-05-16T15:02:53;11.90;99.90
4964;DHT22;2497;47.410;9.740;2023-05-16T15:05:20;12.00;99.90
4964;DHT22;2497;47.410;9.740;2023-05-16T15:07:50;12.00;99.90
4964;DHT22;2497;47.410;9.740;2023-05-16T15:10:17;11.90;99.90
4964;DHT22;2497;47.410;9.740;2023-05-16T15:12:45;11.90;99.90
4964;DHT22;2497;47.410;9.740;2023-05-16T15:15:17;11.80;99.90
4964;DHT22;2497;47.410;9.740;2023-05-16T15:17:48;11.70;99.90
4964;DHT22;2497;47.410;9.740;2023-05-16T15:20:27;11.60;99.90
4964;DHT22;2497;47.410;9.740;2023-05-16T15:22:58;11.40;99.90
4964;DHT22;2497;47.410;9.740;2023-05-16T15:25:28;11.50;99.90
4964;DHT22;2497;47.410;9.740;2023-05-16T15:28:03;11.50;99.90
4964;DHT22;2497;47.410;9.740;2023-05-16T15:30:33;11.50;99.90
4964;DHT22;2497;47.410;9.740;2023-05-16T15:33:01;11.50;99.90
4964;DHT22;2497;47.410;9.740;2023-05-16T15:35:31;11.50;99.90
4964;DHT22;2497;47.410;9.740;2023-05-16T15:38:02;11.30;99.90
4964;DHT22;2497;47.410;9.740;2023-05-16T15:40:30;11.30;99.90
4964;DHT22;2497;47.410;9.740;2023-05-16T15:42:57;11.30;99.90
4964;DHT22;2497;47.410;9.740;2023-05-16T15:45:33;11.30;99.90
4964;DHT22;2497;47.410;9.740;2023-05-16T15:48:01;11.20;99.90
4964;DHT22;2497;47.410;9.740;2023-05-16T15:50:30;11.20;99.90
4964;DHT22;2497;47.410;9.740;2023-05-16T15:52:58;11.30;99.90
4964;DHT22;2497;47.410;9.740;2023-05-16T15:55:35;11.40;99.90
4964;DHT22;2497;47.410;9.740;2023-05-16T15:58:02;11.30;99.90
4964;DHT22;2497;47.410;9.740;2023-05-16T16:00:31;11.30;99.90
4964;DHT22;2497;47.410;9.740;2023-05-16T16:02:58;11.30;99.90
4964;DHT22;2497;47.410;9.740;2023-05-16T16:05:31;11.40;99.90
4964;DHT22;2497;47.410;9.740;2023-05-16T16:08:02;11.40;99.90
4964;DHT22;2497;47.410;9.740;2023-05-16T16:10:29;11.40;99.90
4964;DHT22;2497;47.410;9.740;2023-05-16T16:13:01;11.40;99.90